Time;durP1;ratioP1;P1;durP2;ratioP2;P2;SDS_P1;SDS_P2;PMS_P1;PMS_P2;Temp;Humidity;BMP_temperature;BMP_pressure;BME280_temperature;BME280_humidity;BME280_pressure;Samples;Min_cycle;Max_cycle;Signal;HPM_P1;HPM_P2
2022/05/31 00:01:28;;;;;;;0.70;0.60;;;;;;;19.54;36.74;101263.56;16135729;19;129425;-51
2022/05/31 00:06:50;;;;;;;0.95;0.60;;;;;;;19.53;36.66;101262.69;16144603;19;129452;-48
2022/05/31 00:12:12;;;;;;;1.17;0.57;;;;;;;19.52;36.55;101258.22;16136504;19;130489;-51
2022/05/31 00:17:34;;;;;;;1.00;0.50;;;;;;;19.52;36.39;101251.84;16134612;19;130524;-50
2022/05/31 00:22:56;;;;;;;0.75;0.50;;;;;;;19.50;36.59;101246.56;16135342;19;130261;-47
2022/05/31 00:28:18;;;;;;;1.23;0.30;;;;;;;19.49;36.40;101244.88;16128827;19;130849;-49
2022/05/31 00:33:39;;;;;;;1.17;0.50;;;;;;;19.49;36.73;101244.00;16136055;19;129471;-48
2022/05/31 00:39:02;;;;;;;1.70;0.60;;;;;;;19.49;36.85;101244.00;16126948;19;129237;-53
2022/05/31 00:44:27;;;;;;;1.25;0.80;;;;;;;19.49;36.52;101252.31;16130873;19;130029;-48
2022/05/31 00:49:52;;;;;;;0.87;0.40;;;;;;;19.48;36.79;101242.31;16129477;19;129883;-46
2022/05/31 00:55:17;;;;;;;1.60;0.40;;;;;;;19.48;36.55;101242.31;16132712;19;129866;-49
2022/05/31 01:00:41;;;;;;;1.30;0.40;;;;;;;19.46;36.74;101233.38;16133452;19;130692;-50
2022/05/31 01:06:03;;;;;;;0.85;0.45;;;;;;;19.46;36.72;101238.94;16133499;19;129482;-52
2022/05/31 01:11:27;;;;;;;1.88;0.40;;;;;;;19.46;36.46;101236.16;16130342;19;132115;-47
2022/05/31 01:16:56;;;;;;;1.30;0.50;;;;;;;19.46;36.94;101236.16;16129604;19;129991;-49
2022/05/31 01:22:18;;;;;;;2.33;0.50;;;;;;;19.44;36.82;101230.88;16135818;19;130263;-45
2022/05/31 01:28:08;;;;;;;1.15;0.50;;;;;;;19.45;36.85;101226.16;16136170;19;129367;-45
2022/05/31 01:33:42;;;;;;;0.55;0.40;;;;;;;19.42;36.96;101215.56;16130771;19;130735;-51
2022/05/31 01:39:11;;;;;;;0.75;0.40;;;;;;;19.42;37.00;101223.88;16126954;19;130221;-44
2022/05/31 01:44:35;;;;;;;0.43;0.28;;;;;;;19.41;36.99;101222.19;16126542;19;134307;-48
2022/05/31 01:49:57;;;;;;;1.33;0.40;;;;;;;19.40;36.49;101220.50;16129466;19;130596;-48
2022/05/31 01:55:21;;;;;;;1.17;0.45;;;;;;;19.40;36.78;101215.78;16130919;19;130522;-46
2022/05/31 02:00:42;;;;;;;1.15;0.50;;;;;;;19.38;36.46;101216.03;16129614;19;129180;-46
2022/05/31 02:06:05;;;;;;;0.88;0.65;;;;;;;19.40;36.49;101212.19;16126656;19;130258;-46
2022/05/31 02:11:27;;;;;;;0.50;0.40;;;;;;;19.37;36.68;101203.25;16127293;19;130494;-45
2022/05/31 02:16:49;;;;;;;1.65;0.40;;;;;;;19.36;36.94;101209.88;16127782;19;129767;-51
2022/05/31 02:22:14;;;;;;;0.82;0.40;;;;;;;19.36;36.56;101207.13;16134960;19;130131;-50
2022/05/31 02:27:36;;;;;;;0.40;0.40;;;;;;;19.35;36.68;101210.97;16145924;19;129821;-52
2022/05/31 02:32:59;;;;;;;0.98;0.40;;;;;;;19.36;36.76;101211.84;16140718;19;130065;-46
2022/05/31 02:38:22;;;;;;;0.60;0.43;;;;;;;19.35;36.53;101199.88;16135188;19;131896;-46
2022/05/31 02:43:43;;;;;;;0.80;0.40;;;;;;;19.33;36.48;101199.28;16135980;19;130461;-49
2022/05/31 02:49:06;;;;;;;0.68;0.30;;;;;;;19.33;36.49;101187.34;16141246;19;129663;-48
2022/05/31 02:54:29;;;;;;;0.68;0.50;;;;;;;19.33;36.62;101192.91;16138048;19;130839;-48
2022/05/31 02:59:50;;;;;;;1.25;0.50;;;;;;;19.31;36.83;101187.59;16140583;19;129070;-49
2022/05/31 03:05:12;;;;;;;1.13;0.45;;;;;;;19.31;36.50;101192.28;16139129;19;129979;-47
2022/05/31 03:10:38;;;;;;;3.13;0.40;;;;;;;19.30;36.61;101188.69;16130531;19;130655;-49
2022/05/31 03:16:02;;;;;;;0.43;0.20;;;;;;;19.29;36.88;101195.31;16135853;19;130668;-46
2022/05/31 03:21:35;;;;;;;0.52;0.52;;;;;;;19.31;36.78;101182.06;16140161;19;129489;-47
2022/05/31 03:27:01;;;;;;;0.70;0.30;;;;;;;19.30;36.85;101182.28;16138730;19;130246;-47
2022/05/31 03:32:23;;;;;;;2.83;0.55;;;;;;;19.29;36.86;101186.13;16141969;19;131565;-48
2022/05/31 03:37:44;;;;;;;0.80;0.60;;;;;;;19.27;36.65;101183.63;16139150;19;129958;-45
2022/05/31 03:43:06;;;;;;;1.08;0.40;;;;;;;19.28;36.70;101178.91;16134621;19;129483;-45
2022/05/31 03:48:28;;;;;;;0.95;0.35;;;;;;;19.27;36.84;101183.63;16138089;19;130827;-49
2022/05/31 03:53:50;;;;;;;0.73;0.30;;;;;;;19.26;36.49;101190.25;16142677;19;129667;-51
2022/05/31 03:59:12;;;;;;;0.50;0.50;;;;;;;19.26;36.70;101181.94;16133672;19;130541;-47
2022/05/31 04:04:34;;;;;;;0.50;0.28;;;;;;;19.24;36.81;101186.88;16137013;19;129285;-48
2022/05/31 04:09:56;;;;;;;0.57;0.30;;;;;;;19.24;36.60;101181.34;16135236;19;129822;-51
2022/05/31 04:15:17;;;;;;;1.48;0.50;;;;;;;19.23;36.50;101174.09;16131700;19;129744;-52
2022/05/31 04:20:42;;;;;;;0.73;0.45;;;;;;;19.23;36.89;101160.22;16130072;19;130427;-48
2022/05/31 04:26:05;;;;;;;1.55;0.73;;;;;;;19.24;36.80;101170.22;16136295;19;130022;-50
2022/05/31 04:31:27;;;;;;;0.68;0.30;;;;;;;19.22;36.48;101164.09;16138506;19;130106;-49
2022/05/31 04:36:49;;;;;;;0.90;0.40;;;;;;;19.21;36.60;101166.03;16137195;19;130486;-50
2022/05/31 04:42:11;;;;;;;0.88;0.43;;;;;;;19.21;36.76;101165.16;16129935;19;130425;-52
2022/05/31 04:47:33;;;;;;;0.77;0.40;;;;;;;19.21;37.02;101176.25;16134083;19;129315;-49
2022/05/31 04:52:55;;;;;;;1.52;0.40;;;;;;;19.21;36.96;101176.25;16134905;19;130349;-49
2022/05/31 04:58:16;;;;;;;0.20;0.20;;;;;;;19.21;36.64;101173.50;16131618;19;130462;-50
2022/05/31 05:03:41;;;;;;;3.90;0.50;;;;;;;19.21;36.81;101160.47;16133469;19;131109;-48
2022/05/31 05:09:04;;;;;;;0.67;0.30;;;;;;;19.20;36.83;101175.41;16132388;19;129831;-53
2022/05/31 05:14:25;;;;;;;0.60;0.40;;;;;;;19.20;37.06;101169.84;16129646;19;129115;-51
2022/05/31 05:19:47;;;;;;;3.63;0.50;;;;;;;19.20;36.82;101172.63;16128138;19;129783;-46
2022/05/31 05:25:10;;;;;;;4.80;0.50;;;;;;;19.24;36.86;101169.41;16130878;19;130301;-46
2022/05/31 05:30:39;;;;;;;3.70;0.50;;;;;;;19.28;36.85;101159.47;16132415;19;130314;-48
2022/05/31 05:36:01;;;;;;;0.85;0.30;;;;;;;19.29;37.02;101156.50;16134637;19;130466;-49
2022/05/31 05:41:26;;;;;;;0.50;0.28;;;;;;;19.34;36.64;101162.13;16125406;19;130600;-46
2022/05/31 05:46:48;;;;;;;4.28;0.50;;;;;;;19.40;36.49;101151.16;16129468;19;130907;-48
2022/05/31 05:52:16;;;;;;;0.30;0.30;;;;;;;19.48;36.88;101148.81;16130712;19;130789;-49
2022/05/31 05:57:37;;;;;;;1.33;0.43;;;;;;;19.55;36.46;101147.81;16134388;19;130443;-51
2022/05/31 06:03:14;;;;;;;1.95;0.50;;;;;;;19.64;36.60;101152.75;16149592;19;129472;-49
2022/05/31 06:08:42;;;;;;;1.30;0.50;;;;;;;19.66;36.53;101153.34;16145293;19;129693;-47
2022/05/31 06:14:17;;;;;;;0.60;0.30;;;;;;;19.68;36.53;101140.06;16142487;19;130492;-51
2022/05/31 06:19:40;;;;;;;1.42;0.40;;;;;;;19.69;36.63;101144.50;16142388;19;130278;-50
2022/05/31 06:25:02;;;;;;;1.85;0.40;;;;;;;19.69;36.58;101152.00;16144218;19;130226;-49
2022/05/31 06:30:24;;;;;;;0.70;0.43;;;;;;;19.70;36.54;101162.00;16145821;19;129836;-48
2022/05/31 06:35:46;;;;;;;1.35;0.40;;;;;;;19.72;36.78;101165.38;16150547;19;129191;-50
2022/05/31 06:41:08;;;;;;;0.52;0.40;;;;;;;19.74;36.59;101170.69;16137283;19;129709;-48
2022/05/31 06:46:30;;;;;;;0.80;0.50;;;;;;;19.75;36.54;101180.69;16142815;19;131266;-50
2022/05/31 06:57:43;;;;;;;3.30;0.50;;;;;;;19.77;36.42;101184.06;16144479;19;129115;-49
2022/05/31 07:03:05;;;;;;;2.38;0.55;;;;;;;19.75;36.72;101176.00;16149436;19;128907;-50
2022/05/31 07:08:26;;;;;;;2.60;0.40;;;;;;;19.77;36.42;101178.53;16148167;19;128804;-50
2022/05/31 07:13:52;;;;;;;1.40;0.50;;;;;;;19.78;36.61;101169.94;16145581;19;130592;-50
2022/05/31 07:19:13;;;;;;;1.20;0.60;;;;;;;19.81;36.78;101175.00;16143280;19;131016;-49
2022/05/31 07:24:35;;;;;;;1.10;0.50;;;;;;;19.84;36.84;101179.19;16140159;19;129306;-48
2022/05/31 07:29:57;;;;;;;0.98;0.47;;;;;;;19.87;36.52;101166.78;16143554;19;129597;-49
2022/05/31 07:35:19;;;;;;;1.05;0.40;;;;;;;19.89;36.37;101170.97;16137809;19;130411;-51
2022/05/31 07:40:41;;;;;;;0.70;0.40;;;;;;;19.93;36.40;101163.00;16138286;19;130641;-49
2022/05/31 07:46:10;;;;;;;0.80;0.43;;;;;;;19.97;36.42;101155.84;16142742;19;129676;-48
2022/05/31 07:51:33;;;;;;;0.70;0.60;;;;;;;20.01;36.66;101159.00;16146105;19;131436;-48
2022/05/31 07:56:54;;;;;;;0.65;0.43;;;;;;;20.02;36.16;101150.41;16140086;19;130203;-48
2022/05/31 08:02:16;;;;;;;0.85;0.47;;;;;;;20.05;36.31;101151.84;16140502;19;129824;-48
2022/05/31 08:07:39;;;;;;;0.68;0.50;;;;;;;20.07;36.42;101149.66;16139459;19;129485;-49
2022/05/31 08:13:00;;;;;;;0.85;0.22;;;;;;;20.09;36.53;101164.13;16135422;19;129750;-46
2022/05/31 08:18:22;;;;;;;0.50;0.47;;;;;;;20.12;36.43;101152.53;16135837;19;130054;-50
2022/05/31 08:23:44;;;;;;;1.00;0.60;;;;;;;20.18;36.35;101157.09;16136086;19;129625;-46
2022/05/31 08:29:06;;;;;;;0.77;0.38;;;;;;;20.22;36.35;101151.88;16138023;19;129535;-48
2022/05/31 08:34:29;;;;;;;0.65;0.47;;;;;;;20.26;36.44;101151.13;16138269;19;130457;-50
2022/05/31 08:39:51;;;;;;;1.25;0.40;;;;;;;20.31;36.13;101155.06;16133579;19;129529;-48
2022/05/31 08:45:37;;;;;;;0.68;0.45;;;;;;;20.36;36.07;101155.16;16138038;19;129744;-52
2022/05/31 08:56:58;;;;;;;0.65;0.40;;;;;;;20.39;36.08;101149.91;16139905;19;131014;-48
2022/05/31 09:02:47;;;;;;;0.85;0.52;;;;;;;20.42;35.69;101145.81;16136662;19;128997;-46
2022/05/31 09:08:12;;;;;;;0.63;0.40;;;;;;;20.43;36.27;101141.94;16140509;19;129250;-51
2022/05/31 09:13:49;;;;;;;0.60;0.50;;;;;;;20.43;35.89;101140.00;16138026;19;129440;-51
2022/05/31 09:19:26;;;;;;;1.05;0.40;;;;;;;20.44;36.20;101138.03;16138063;19;129746;-53
2022/05/31 09:24:48;;;;;;;0.40;0.30;;;;;;;20.45;35.88;101139.72;16139413;19;130244;-46
2022/05/31 09:30:10;;;;;;;0.55;0.40;;;;;;;20.46;36.37;101135.84;16135748;19;130344;-48
2022/05/31 09:35:50;;;;;;;0.73;0.40;;;;;;;20.48;36.22;101133.66;16137615;19;128918;-50
2022/05/31 09:41:24;;;;;;;0.57;0.40;;;;;;;20.49;35.87;101123.41;16133193;19;128989;-51
2022/05/31 09:46:52;;;;;;;0.45;0.43;;;;;;;20.50;35.89;101128.69;16138013;19;129902;-47
2022/05/31 09:52:21;;;;;;;2.40;0.43;;;;;;;20.50;35.92;101128.69;16137101;19;130723;-45
2022/05/31 09:57:43;;;;;;;0.73;0.40;;;;;;;20.49;36.25;101113.13;16137648;19;130052;-48
2022/05/31 10:03:13;;;;;;;0.88;0.32;;;;;;;20.51;35.82;101110.94;16136525;19;130471;-48
2022/05/31 10:08:35;;;;;;;0.60;0.40;;;;;;;20.51;35.85;101110.94;16134782;19;130290;-46
2022/05/31 10:14:01;;;;;;;1.10;0.50;;;;;;;20.51;36.00;101110.94;16133377;19;130182;-50
2022/05/31 10:19:26;;;;;;;0.50;0.40;;;;;;;20.47;35.74;101109.75;16135147;19;131741;-49
2022/05/31 10:24:48;;;;;;;2.13;0.30;;;;;;;20.47;36.02;101108.91;16135957;19;129252;-50
2022/05/31 10:30:18;;;;;;;0.50;0.50;;;;;;;20.49;35.91;101106.75;16133632;19;130074;-48
2022/05/31 10:35:46;;;;;;;0.85;0.40;;;;;;;20.48;35.96;101093.94;16137930;19;129596;-51
2022/05/31 10:41:22;;;;;;;0.77;0.60;;;;;;;20.48;35.80;101105.88;16129199;19;132880;-47
2022/05/31 10:47:13;;;;;;;0.82;0.50;;;;;;;20.50;35.93;101098.13;16144827;19;130148;-47
2022/05/31 10:52:43;;;;;;;0.55;0.40;;;;;;;20.49;35.91;101104.78;16149800;19;130266;-53
2022/05/31 10:58:30;;;;;;;0.80;0.52;;;;;;;20.48;35.77;101097.53;16147546;19;129725;-53
2022/05/31 11:04:39;;;;;;;0.55;0.55;;;;;;;20.48;35.78;101105.06;16148805;19;129241;-48
2022/05/31 11:16:23;;;;;;;0.80;0.50;;;;;;;20.50;36.21;101103.69;16143842;19;129260;-45
2022/05/31 11:22:09;;;;;;;1.58;0.77;;;;;;;20.51;36.03;101102.59;16146187;19;130211;-51
2022/05/31 11:27:56;;;;;;;0.75;0.70;;;;;;;20.53;35.99;101096.78;16144886;19;130099;-50
2022/05/31 11:33:34;;;;;;;1.33;0.75;;;;;;;20.52;35.92;101109.84;16146438;19;129613;-47
2022/05/31 11:39:23;;;;;;;1.33;0.80;;;;;;;20.51;36.11;101110.94;16145494;19;129574;-47
2022/05/31 11:44:57;;;;;;;1.27;0.60;;;;;;;20.47;36.29;101120.88;16145304;19;129442;-46
2022/05/31 11:50:18;;;;;;;0.80;0.52;;;;;;;20.43;36.16;101117.75;16144374;19;129576;-48
2022/05/31 11:55:45;;;;;;;0.75;0.47;;;;;;;20.44;35.93;101121.38;16142845;19;130146;-53
2022/05/31 12:01:15;;;;;;;1.13;0.50;;;;;;;20.44;35.68;101110.25;16142198;19;129160;-47
2022/05/31 12:06:40;;;;;;;1.98;0.80;;;;;;;20.40;35.53;101123.00;16142402;19;130407;-50
2022/05/31 12:12:23;;;;;;;2.20;0.80;;;;;;;20.38;35.64;101133.50;16142148;19;129931;-52
2022/05/31 12:18:15;;;;;;;0.93;0.60;;;;;;;20.38;35.04;101127.94;16142848;19;128851;-49
2022/05/31 12:23:45;;;;;;;1.55;0.70;;;;;;;20.35;35.57;101134.00;16140928;19;129842;-45
2022/05/31 12:29:20;;;;;;;1.52;0.63;;;;;;;20.33;35.24;101130.63;16141909;19;129589;-49
2022/05/31 12:34:42;;;;;;;1.92;0.70;;;;;;;20.30;35.44;101126.44;16132112;19;130464;-47
2022/05/31 12:40:24;;;;;;;0.60;0.50;;;;;;;20.32;35.33;101123.41;16133738;19;129179;-51
2022/05/31 12:45:47;;;;;;;1.08;0.60;;;;;;;20.32;35.08;101110.34;16135815;19;130799;-46
2022/05/31 12:51:20;;;;;;;1.13;0.70;;;;;;;20.35;35.10;101097.88;16136507;19;129697;-50
2022/05/31 12:56:54;;;;;;;1.10;0.55;;;;;;;20.36;34.93;101099.56;16139509;19;129580;-47
2022/05/31 13:02:40;;;;;;;0.50;0.50;;;;;;;20.34;35.07;101101.75;16135594;19;130136;-50
2022/05/31 13:08:21;;;;;;;1.15;0.52;;;;;;;20.34;35.15;101099.84;16140350;19;130200;-49
2022/05/31 13:19:34;;;;;;;1.95;0.40;;;;;;;20.32;35.41;101088.13;16138633;19;130579;-46
2022/05/31 13:25:14;;;;;;;0.70;0.50;;;;;;;20.35;35.23;101078.44;16136256;19;129438;-51
2022/05/31 13:30:42;;;;;;;0.57;0.55;;;;;;;20.38;35.35;101083.50;16140891;19;131347;-48
2022/05/31 13:36:28;;;;;;;1.35;0.40;;;;;;;20.38;35.12;101078.75;16135678;19;129291;-52
2022/05/31 13:41:54;;;;;;;0.50;0.50;;;;;;;20.38;35.46;101083.50;16129490;19;130568;-47
2022/05/31 13:47:19;;;;;;;1.80;0.60;;;;;;;20.38;35.43;101080.72;16135021;19;129143;-46
2022/05/31 13:52:41;;;;;;;1.03;0.60;;;;;;;20.38;35.13;101083.50;16135276;19;129073;-50
2022/05/31 13:58:03;;;;;;;0.73;0.50;;;;;;;20.37;35.15;101082.63;16135565;19;130385;-51
2022/05/31 14:03:38;;;;;;;0.77;0.40;;;;;;;20.37;35.20;101084.59;16131493;19;130493;-46
2022/05/31 14:09:01;;;;;;;0.77;0.43;;;;;;;20.35;35.50;101082.06;16135827;19;129036;-49
2022/05/31 14:14:52;;;;;;;1.20;0.68;;;;;;;20.36;35.36;101091.25;16130675;19;132253;-50
2022/05/31 14:20:16;;;;;;;0.60;0.50;;;;;;;20.34;35.33;101087.88;16144207;19;129817;-53
2022/05/31 14:25:39;;;;;;;0.90;0.40;;;;;;;20.36;35.29;101085.69;16149428;19;129048;-48
2022/05/31 14:31:04;;;;;;;0.45;0.32;;;;;;;20.38;35.12;101077.94;16149685;19;129676;-51
2022/05/31 14:36:34;;;;;;;0.95;0.40;;;;;;;20.39;35.12;101077.66;16149190;19;128959;-52
2022/05/31 14:41:56;;;;;;;0.40;0.40;;;;;;;20.41;35.40;101077.44;16144092;19;129340;-50
2022/05/31 14:47:27;;;;;;;0.30;0.30;;;;;;;20.40;35.58;101070.19;16146787;19;129171;-49
2022/05/31 14:52:52;;;;;;;0.60;0.50;;;;;;;20.40;35.66;101068.25;16149994;19;129189;-50
2022/05/31 14:58:38;;;;;;;2.30;0.50;;;;;;;20.44;35.57;101076.91;16150418;19;129759;-49
2022/05/31 15:04:05;;;;;;;0.50;0.30;;;;;;;20.41;35.39;101077.44;16147394;19;130131;-46
2022/05/31 15:09:30;;;;;;;1.15;0.30;;;;;;;20.40;35.62;101078.53;16148125;19;129645;-47
2022/05/31 15:20:39;;;;;;;0.40;0.30;;;;;;;20.37;35.20;101082.63;16140833;19;129385;-51
2022/05/31 15:26:04;;;;;;;2.00;0.50;;;;;;;20.36;35.60;101094.00;16143837;19;129541;-47
2022/05/31 15:31:30;;;;;;;;;;;;;;;20.32;35.90;101093.69;16144166;19;129590;-53
2022/05/31 15:37:12;;;;;;;1.05;0.40;;;;;;;20.33;35.71;101102.84;16142862;19;131026;-50
2022/05/31 15:42:34;;;;;;;3.47;0.60;;;;;;;20.30;35.74;101120.88;16140121;19;129164;-51
2022/05/31 15:47:55;;;;;;;3.70;0.60;;;;;;;20.29;36.15;101142.28;16140760;19;130515;-48
2022/05/31 15:53:23;;;;;;;2.00;0.60;;;;;;;20.27;36.45;101133.34;16143190;19;128918;-51
2022/05/31 15:58:51;;;;;;;3.28;0.65;;;;;;;20.26;36.17;101137.22;16142156;19;130573;-49
2022/05/31 16:04:13;;;;;;;3.40;1.13;;;;;;;20.22;36.11;101136.03;16135480;19;129992;-47
2022/05/31 16:09:35;;;;;;;3.80;0.90;;;;;;;20.23;36.44;101140.50;16141804;19;130387;-47
2022/05/31 16:14:58;;;;;;;9.38;1.10;;;;;;;20.26;36.46;101153.88;16143097;19;129494;-50
2022/05/31 16:20:21;;;;;;;2.08;0.80;;;;;;;20.24;36.27;101163.56;16137042;19;129885;-49
2022/05/31 16:25:42;;;;;;;3.63;0.80;;;;;;;20.23;36.44;101173.84;16142340;19;130539;-48
2022/05/31 16:31:11;;;;;;;3.17;1.02;;;;;;;20.22;36.44;101160.22;16143416;19;129637;-51
2022/05/31 16:36:34;;;;;;;1.90;0.80;;;;;;;20.18;36.04;101148.75;16140143;19;130530;-50
2022/05/31 16:41:58;;;;;;;;;;;;;;;20.14;35.82;101150.34;16135523;19;129644;-51
2022/05/31 16:47:25;;;;;;;4.07;1.15;;;;;;;20.14;36.12;101159.50;16141435;19;129766;-51
2022/05/31 16:52:50;;;;;;;7.68;1.10;;;;;;;20.14;36.66;101175.34;16126545;19;129722;-51
2022/05/31 16:58:22;;;;;;;4.22;0.82;;;;;;;20.17;36.43;101182.31;16136813;19;130815;-44
2022/05/31 17:03:45;;;;;;;5.03;0.75;;;;;;;20.20;36.14;101187.38;16133849;19;129248;-46
2022/05/31 17:14:53;;;;;;;5.47;0.70;;;;;;;20.26;36.63;101230.81;16139140;19;130555;-47
2022/05/31 17:20:17;;;;;;;6.93;0.73;;;;;;;20.30;36.44;101215.34;16136799;19;129645;-49
2022/05/31 17:25:42;;;;;;;2.60;0.80;;;;;;;20.34;36.74;101221.22;16137044;19;129101;-48
2022/05/31 17:31:03;;;;;;;6.93;0.70;;;;;;;20.37;36.94;101212.41;16133810;19;128858;-51
2022/05/31 17:36:25;;;;;;;1.88;0.50;;;;;;;20.38;37.04;101192.69;16135321;19;130076;-48
2022/05/31 17:41:55;;;;;;;1.92;0.47;;;;;;;20.41;36.65;101169.13;16131344;19;129176;-50
2022/05/31 17:47:17;;;;;;;1.08;0.50;;;;;;;20.42;36.74;101184.72;16133810;19;129923;-50
2022/05/31 17:52:39;;;;;;;2.30;0.63;;;;;;;20.42;36.67;101184.72;16134397;19;129300;-52
2022/05/31 17:58:00;;;;;;;1.38;0.47;;;;;;;20.43;36.83;101180.84;16132238;19;129180;-50
2022/05/31 18:03:32;;;;;;;5.75;0.73;;;;;;;20.44;36.80;101174.16;16127054;19;129412;-53
2022/05/31 18:08:55;;;;;;;2.20;0.47;;;;;;;20.47;37.02;101186.75;16130645;19;129009;-51
2022/05/31 18:14:16;;;;;;;2.42;0.45;;;;;;;20.49;37.02;101190.94;16119919;19;130729;-52
2022/05/31 18:19:38;;;;;;;6.55;0.40;;;;;;;20.50;37.19;101195.41;16126436;19;131656;-48
2022/05/31 18:25:02;;;;;;;3.20;0.40;;;;;;;20.52;37.30;101190.44;16128450;19;130177;-50
2022/05/31 18:30:24;;;;;;;2.45;0.30;;;;;;;20.54;37.63;101192.94;16129183;19;130070;-45
2022/05/31 18:35:46;;;;;;;2.75;0.65;;;;;;;20.55;37.21;101202.97;16125681;19;130709;-48
2022/05/31 18:41:10;;;;;;;3.50;0.43;;;;;;;20.56;37.85;101204.66;16125615;19;129478;-45
2022/05/31 18:46:31;;;;;;;2.47;0.40;;;;;;;20.56;37.50;101211.06;16127395;19;130223;-48
2022/05/31 18:51:53;;;;;;;4.50;0.50;;;;;;;20.57;37.32;101220.25;16125124;19;131896;-44
2022/05/31 18:57:16;;;;;;;3.30;0.50;;;;;;;20.59;37.39;101221.69;16122541;19;130424;-46
2022/05/31 19:02:40;;;;;;;2.55;0.43;;;;;;;20.59;37.81;101234.75;16123845;19;129885;-44
2022/05/31 19:08:03;;;;;;;1.77;0.40;;;;;;;20.60;37.58;101239.22;16140808;19;129277;-48
2022/05/31 19:13:31;;;;;;;1.25;0.30;;;;;;;20.62;37.57;101247.28;16141666;19;129793;-46
2022/05/31 19:18:55;;;;;;;2.85;0.50;;;;;;;20.60;37.05;101240.03;16139706;19;129556;-50
2022/05/31 19:24:17;;;;;;;1.73;0.60;;;;;;;20.56;37.02;101238.84;16134066;19;130479;-46
2022/05/31 19:29:39;;;;;;;2.42;0.40;;;;;;;20.53;37.59;101247.72;16130477;19;129449;-52
2022/05/31 19:35:01;;;;;;;3.03;0.30;;;;;;;20.51;37.36;101255.47;16130337;19;130940;-51
2022/05/31 19:40:24;;;;;;;2.65;0.40;;;;;;;20.49;37.46;101263.19;16136015;19;129055;-47
2022/05/31 19:45:45;;;;;;;4.90;0.30;;;;;;;20.47;37.89;101273.72;16139847;19;130612;-49
2022/05/31 19:51:09;;;;;;;2.00;0.40;;;;;;;20.45;37.46;101273.13;16136066;19;130353;-47
2022/05/31 19:56:30;;;;;;;2.90;0.40;;;;;;;20.42;37.55;101277.25;16131191;19;130171;-48
2022/05/31 20:01:53;;;;;;;4.13;0.50;;;;;;;20.42;37.77;101290.31;16131423;19;130452;-49
2022/05/31 20:07:24;;;;;;;2.50;0.40;;;;;;;20.41;37.37;101289.47;16134138;19;130983;-46
2022/05/31 20:12:49;;;;;;;0.65;0.38;;;;;;;20.40;37.59;101290.53;16133465;19;131679;-49
2022/05/31 20:23:47;;;;;;;21.13;1.55;;;;;;;20.38;38.14;101317.72;16131135;19;129556;-52
2022/05/31 20:29:14;;;;;;;11.90;0.97;;;;;;;20.35;37.68;101326.59;16135711;19;129426;-46
2022/05/31 20:34:49;;;;;;;10.45;1.30;;;;;;;20.33;37.37;101325.13;16130211;19;130139;-47
2022/05/31 20:40:14;;;;;;;12.27;1.00;;;;;;;20.31;37.82;101330.13;16136040;19;129830;-52
2022/05/31 20:45:36;;;;;;;7.07;0.73;;;;;;;20.25;37.85;101324.44;16138450;19;130071;-52
2022/05/31 20:50:58;;;;;;;8.18;0.80;;;;;;;20.23;37.53;101323.84;16136046;19;131088;-47
2022/05/31 20:56:20;;;;;;;5.18;1.10;;;;;;;20.21;37.71;101334.34;16131992;19;129498;-51
2022/05/31 21:01:41;;;;;;;3.17;0.82;;;;;;;20.20;37.38;101334.63;16138558;19;129939;-51
2022/05/31 21:07:05;;;;;;;5.85;0.63;;;;;;;20.19;37.86;101336.53;16139736;19;130062;-50
2022/05/31 21:12:27;;;;;;;2.28;0.70;;;;;;;20.16;38.04;101334.28;16139276;19;129713;-53
2022/05/31 21:17:48;;;;;;;3.92;0.70;;;;;;;20.14;37.91;101340.06;16137572;19;129921;-50
2022/05/31 21:23:14;;;;;;;3.17;0.50;;;;;;;20.13;37.72;101341.16;16134880;19;129302;-53
2022/05/31 21:28:40;;;;;;;2.78;0.57;;;;;;;20.12;37.77;101344.19;16132148;19;130693;-49
2022/05/31 21:34:03;;;;;;;3.92;0.60;;;;;;;20.10;37.73;101343.56;16136104;19;129421;-48
2022/05/31 21:45:13;;;;;;;1.25;0.40;;;;;;;20.07;37.64;101336.59;16129050;19;129151;-49
2022/05/31 21:50:39;;;;;;;2.50;0.50;;;;;;;20.06;37.71;101339.63;16135610;19;129704;-48
2022/05/31 21:56:02;;;;;;;1.10;0.60;;;;;;;20.05;37.98;101335.16;16128432;19;130664;-50
2022/05/31 22:01:25;;;;;;;1.05;0.40;;;;;;;20.04;37.75;101339.03;16129422;19;130642;-53
2022/05/31 22:06:50;;;;;;;3.10;0.40;;;;;;;20.03;37.66;101334.56;16127180;19;129906;-52
2022/05/31 22:12:12;;;;;;;;;;;;;;;19.97;37.84;101328.84;16129108;19;130896;-51
2022/05/31 22:17:34;;;;;;;0.75;0.30;;;;;;;19.99;37.67;101332.25;16126943;19;130510;-52
2022/05/31 22:22:56;;;;;;;0.45;0.30;;;;;;;19.98;38.01;101324.16;16125491;19;129705;-52
2022/05/31 22:28:18;;;;;;;0.40;0.38;;;;;;;19.96;37.92;101316.06;16132749;19;129149;-50
2022/05/31 22:33:40;;;;;;;3.05;0.30;;;;;;;19.95;37.92;101306.03;16128453;19;130991;-50
2022/05/31 22:39:05;;;;;;;0.47;0.20;;;;;;;19.95;38.02;101305.19;16132251;19;129937;-54
2022/05/31 22:44:27;;;;;;;3.22;0.38;;;;;;;19.93;38.04;101310.16;16139316;19;129692;-52
2022/05/31 22:49:48;;;;;;;0.40;0.15;;;;;;;19.93;37.89;101302.69;16142560;19;130288;-53
2022/05/31 22:55:10;;;;;;;0.82;0.30;;;;;;;19.93;37.90;101311.00;16142155;19;129877;-53
2022/05/31 23:00:44;;;;;;;2.05;0.30;;;;;;;19.93;38.11;101313.78;16145783;19;130252;-52
2022/05/31 23:06:09;;;;;;;1.00;0.30;;;;;;;19.91;37.80;101313.19;16140064;19;130373;-51
2022/05/31 23:11:30;;;;;;;0.68;0.30;;;;;;;19.89;37.64;101309.81;16140082;19;130051;-53
2022/05/31 23:16:55;;;;;;;0.32;0.20;;;;;;;19.88;37.63;101308.13;16140764;19;129929;-47
2022/05/31 23:27:59;;;;;;;2.58;0.50;;;;;;;19.85;37.68;101311.38;16145557;19;129378;-53
2022/05/31 23:33:22;;;;;;;1.40;0.30;;;;;;;19.86;37.86;101320.56;16142980;19;129451;-53
2022/05/31 23:38:43;;;;;;;0.60;0.30;;;;;;;19.85;37.77;101314.16;16142266;19;130260;-51
2022/05/31 23:44:05;;;;;;;0.28;0.20;;;;;;;19.84;37.70;101313.31;16138175;19;130712;-51
2022/05/31 23:49:27;;;;;;;0.38;0.20;;;;;;;19.83;38.12;101316.31;16138928;19;129152;-51
2022/05/31 23:54:48;;;;;;;1.55;0.28;;;;;;;19.83;37.69;101316.31;16135882;19;130702;-52
